sensor_id;sensor_type;location;lat;lon;timestamp;P1;durP1;ratioP1;P2;durP2;ratioP2
17228;SDS011;8731;50.364;8.958;2022-11-15T00:02:23;12.33;;;8.50;;
17228;SDS011;8731;50.364;8.958;2022-11-15T00:07:04;10.63;;;7.10;;
17228;SDS011;8731;50.364;8.958;2022-11-15T00:11:44;11.10;;;6.63;;
17228;SDS011;8731;50.364;8.958;2022-11-15T00:16:27;6.80;;;5.70;;
17228;SDS011;8731;50.364;8.958;2022-11-15T00:21:09;7.97;;;5.97;;
17228;SDS011;8731;50.364;8.958;2022-11-15T00:25:56;7.67;;;5.93;;
17228;SDS011;8731;50.364;8.958;2022-11-15T00:30:38;6.77;;;5.53;;
17228;SDS011;8731;50.364;8.958;2022-11-15T00:35:20;8.53;;;5.70;;
17228;SDS011;8731;50.364;8.958;2022-11-15T00:40:01;8.37;;;5.13;;
17228;SDS011;8731;50.364;8.958;2022-11-15T00:44:43;11.13;;;5.80;;
17228;SDS011;8731;50.364;8.958;2022-11-15T00:49:23;9.07;;;5.70;;
17228;SDS011;8731;50.364;8.958;2022-11-15T00:54:05;7.30;;;4.97;;
17228;SDS011;8731;50.364;8.958;2022-11-15T00:58:46;7.83;;;5.63;;
17228;SDS011;8731;50.364;8.958;2022-11-15T01:03:27;6.10;;;4.87;;
17228;SDS011;8731;50.364;8.958;2022-11-15T01:08:12;8.27;;;5.17;;
17228;SDS011;8731;50.364;8.958;2022-11-15T01:12:55;7.07;;;5.17;;
17228;SDS011;8731;50.364;8.958;2022-11-15T01:17:37;6.67;;;4.90;;
17228;SDS011;8731;50.364;8.958;2022-11-15T01:22:17;7.03;;;4.77;;
17228;SDS011;8731;50.364;8.958;2022-11-15T01:26:58;5.57;;;4.17;;
17228;SDS011;8731;50.364;8.958;2022-11-15T01:31:40;5.23;;;4.30;;
17228;SDS011;8731;50.364;8.958;2022-11-15T01:36:21;9.47;;;5.20;;
17228;SDS011;8731;50.364;8.958;2022-11-15T01:41:03;6.90;;;4.80;;
17228;SDS011;8731;50.364;8.958;2022-11-15T01:45:45;7.10;;;4.47;;
17228;SDS011;8731;50.364;8.958;2022-11-15T01:50:34;6.53;;;3.97;;
17228;SDS011;8731;50.364;8.958;2022-11-15T01:55:16;9.17;;;4.77;;
17228;SDS011;8731;50.364;8.958;2022-11-15T02:00:02;7.30;;;4.80;;
17228;SDS011;8731;50.364;8.958;2022-11-15T02:04:46;9.70;;;6.10;;
17228;SDS011;8731;50.364;8.958;2022-11-15T02:09:30;9.23;;;6.20;;
17228;SDS011;8731;50.364;8.958;2022-11-15T02:14:11;11.90;;;7.47;;
17228;SDS011;8731;50.364;8.958;2022-11-15T02:18:56;11.73;;;7.57;;
17228;SDS011;8731;50.364;8.958;2022-11-15T02:24:02;9.43;;;5.50;;
17228;SDS011;8731;50.364;8.958;2022-11-15T02:29:28;7.57;;;4.50;;
17228;SDS011;8731;50.364;8.958;2022-11-15T02:34:35;5.67;;;4.07;;
17228;SDS011;8731;50.364;8.958;2022-11-15T02:39:32;5.33;;;4.07;;
17228;SDS011;8731;50.364;8.958;2022-11-15T02:44:22;6.23;;;3.77;;
17228;SDS011;8731;50.364;8.958;2022-11-15T02:49:10;4.47;;;3.47;;
17228;SDS011;8731;50.364;8.958;2022-11-15T02:53:55;6.03;;;4.07;;
17228;SDS011;8731;50.364;8.958;2022-11-15T02:58:52;12.67;;;5.67;;
17228;SDS011;8731;50.364;8.958;2022-11-15T03:03:56;4.97;;;3.90;;
17228;SDS011;8731;50.364;8.958;2022-11-15T03:08:59;5.87;;;3.63;;
17228;SDS011;8731;50.364;8.958;2022-11-15T03:13:50;7.87;;;4.00;;
17228;SDS011;8731;50.364;8.958;2022-11-15T03:18:38;4.07;;;3.37;;
17228;SDS011;8731;50.364;8.958;2022-11-15T03:23:23;6.57;;;3.37;;
17228;SDS011;8731;50.364;8.958;2022-11-15T03:28:07;4.00;;;3.37;;
17228;SDS011;8731;50.364;8.958;2022-11-15T03:32:56;5.40;;;3.57;;
17228;SDS011;8731;50.364;8.958;2022-11-15T03:37:40;5.70;;;3.90;;
17228;SDS011;8731;50.364;8.958;2022-11-15T03:42:30;3.97;;;3.20;;
17228;SDS011;8731;50.364;8.958;2022-11-15T03:47:20;4.60;;;3.30;;
17228;SDS011;8731;50.364;8.958;2022-11-15T03:52:06;7.03;;;3.70;;
17228;SDS011;8731;50.364;8.958;2022-11-15T03:56:49;4.63;;;3.60;;
17228;SDS011;8731;50.364;8.958;2022-11-15T04:01:30;5.70;;;4.47;;
17228;SDS011;8731;50.364;8.958;2022-11-15T04:06:12;4.70;;;4.17;;
17228;SDS011;8731;50.364;8.958;2022-11-15T04:10:53;7.87;;;4.83;;
17228;SDS011;8731;50.364;8.958;2022-11-15T04:15:33;5.97;;;4.10;;
17228;SDS011;8731;50.364;8.958;2022-11-15T04:20:15;4.87;;;3.90;;
17228;SDS011;8731;50.364;8.958;2022-11-15T04:25:18;4.57;;;4.00;;
17228;SDS011;8731;50.364;8.958;2022-11-15T04:29:58;6.50;;;4.13;;
17228;SDS011;8731;50.364;8.958;2022-11-15T04:34:39;5.37;;;4.80;;
17228;SDS011;8731;50.364;8.958;2022-11-15T04:39:20;7.27;;;4.33;;
17228;SDS011;8731;50.364;8.958;2022-11-15T04:44:01;5.97;;;4.40;;
17228;SDS011;8731;50.364;8.958;2022-11-15T04:48:43;6.87;;;5.33;;
17228;SDS011;8731;50.364;8.958;2022-11-15T04:53:23;7.13;;;5.63;;
17228;SDS011;8731;50.364;8.958;2022-11-15T04:58:04;9.30;;;5.67;;
17228;SDS011;8731;50.364;8.958;2022-11-15T05:02:46;7.17;;;5.30;;
17228;SDS011;8731;50.364;8.958;2022-11-15T05:07:45;8.00;;;5.43;;
17228;SDS011;8731;50.364;8.958;2022-11-15T05:12:25;8.47;;;5.80;;
17228;SDS011;8731;50.364;8.958;2022-11-15T05:17:06;10.27;;;5.97;;
17228;SDS011;8731;50.364;8.958;2022-11-15T05:21:48;7.93;;;6.07;;
17228;SDS011;8731;50.364;8.958;2022-11-15T05:26:29;8.20;;;5.50;;
17228;SDS011;8731;50.364;8.958;2022-11-15T05:31:11;9.67;;;6.30;;
17228;SDS011;8731;50.364;8.958;2022-11-15T05:35:54;8.00;;;5.63;;
17228;SDS011;8731;50.364;8.958;2022-11-15T05:40:43;11.77;;;6.17;;
17228;SDS011;8731;50.364;8.958;2022-11-15T05:45:24;7.40;;;5.27;;
17228;SDS011;8731;50.364;8.958;2022-11-15T05:50:05;9.43;;;5.27;;
17228;SDS011;8731;50.364;8.958;2022-11-15T05:54:49;14.80;;;8.43;;
17228;SDS011;8731;50.364;8.958;2022-11-15T05:59:33;11.83;;;5.80;;
17228;SDS011;8731;50.364;8.958;2022-11-15T06:04:15;8.30;;;4.90;;
17228;SDS011;8731;50.364;8.958;2022-11-15T06:08:56;7.30;;;5.30;;
17228;SDS011;8731;50.364;8.958;2022-11-15T06:13:36;7.53;;;4.40;;
17228;SDS011;8731;50.364;8.958;2022-11-15T06:18:18;5.80;;;4.73;;
17228;SDS011;8731;50.364;8.958;2022-11-15T06:22:59;8.60;;;5.17;;
17228;SDS011;8731;50.364;8.958;2022-11-15T06:27:43;10.57;;;7.53;;
17228;SDS011;8731;50.364;8.958;2022-11-15T06:32:30;16.13;;;9.83;;
17228;SDS011;8731;50.364;8.958;2022-11-15T06:37:12;16.43;;;9.30;;
17228;SDS011;8731;50.364;8.958;2022-11-15T06:41:53;20.80;;;12.97;;
17228;SDS011;8731;50.364;8.958;2022-11-15T06:46:34;21.13;;;11.33;;
17228;SDS011;8731;50.364;8.958;2022-11-15T06:51:15;21.37;;;11.33;;
17228;SDS011;8731;50.364;8.958;2022-11-15T06:55:59;28.23;;;14.67;;
17228;SDS011;8731;50.364;8.958;2022-11-15T07:00:41;26.17;;;17.10;;
17228;SDS011;8731;50.364;8.958;2022-11-15T07:05:22;13.03;;;8.70;;
17228;SDS011;8731;50.364;8.958;2022-11-15T07:10:03;25.00;;;15.30;;
17228;SDS011;8731;50.364;8.958;2022-11-15T07:14:47;15.27;;;9.30;;
17228;SDS011;8731;50.364;8.958;2022-11-15T07:19:29;14.33;;;10.07;;
17228;SDS011;8731;50.364;8.958;2022-11-15T07:24:09;7.43;;;5.07;;
17228;SDS011;8731;50.364;8.958;2022-11-15T07:28:50;6.50;;;4.60;;
17228;SDS011;8731;50.364;8.958;2022-11-15T07:33:32;6.37;;;4.40;;
17228;SDS011;8731;50.364;8.958;2022-11-15T07:38:14;5.57;;;4.23;;
17228;SDS011;8731;50.364;8.958;2022-11-15T07:43:01;8.87;;;4.47;;
17228;SDS011;8731;50.364;8.958;2022-11-15T07:47:45;6.27;;;4.23;;
17228;SDS011;8731;50.364;8.958;2022-11-15T07:52:27;6.50;;;4.03;;
17228;SDS011;8731;50.364;8.958;2022-11-15T07:57:08;6.93;;;4.43;;
17228;SDS011;8731;50.364;8.958;2022-11-15T08:01:49;6.87;;;4.60;;
17228;SDS011;8731;50.364;8.958;2022-11-15T08:06:30;7.00;;;5.13;;
17228;SDS011;8731;50.364;8.958;2022-11-15T08:11:12;11.60;;;6.80;;
17228;SDS011;8731;50.364;8.958;2022-11-15T08:15:56;9.30;;;6.57;;
17228;SDS011;8731;50.364;8.958;2022-11-15T08:20:38;9.30;;;5.50;;
17228;SDS011;8731;50.364;8.958;2022-11-15T08:25:20;4.93;;;3.77;;
17228;SDS011;8731;50.364;8.958;2022-11-15T08:30:02;4.60;;;3.50;;
17228;SDS011;8731;50.364;8.958;2022-11-15T08:34:44;4.37;;;3.60;;
17228;SDS011;8731;50.364;8.958;2022-11-15T08:39:24;6.10;;;3.40;;
17228;SDS011;8731;50.364;8.958;2022-11-15T08:44:05;5.80;;;3.93;;
17228;SDS011;8731;50.364;8.958;2022-11-15T08:48:47;5.73;;;4.00;;
17228;SDS011;8731;50.364;8.958;2022-11-15T08:53:28;8.23;;;4.40;;
17228;SDS011;8731;50.364;8.958;2022-11-15T08:58:08;4.27;;;3.43;;
17228;SDS011;8731;50.364;8.958;2022-11-15T09:02:49;5.07;;;3.47;;
17228;SDS011;8731;50.364;8.958;2022-11-15T09:07:31;16.13;;;6.70;;
17228;SDS011;8731;50.364;8.958;2022-11-15T09:12:12;9.47;;;4.90;;
17228;SDS011;8731;50.364;8.958;2022-11-15T09:16:53;7.00;;;4.27;;
17228;SDS011;8731;50.364;8.958;2022-11-15T09:21:34;7.73;;;6.07;;
17228;SDS011;8731;50.364;8.958;2022-11-15T09:26:17;9.37;;;8.47;;
17228;SDS011;8731;50.364;8.958;2022-11-15T09:30:59;8.33;;;7.20;;
17228;SDS011;8731;50.364;8.958;2022-11-15T09:35:41;7.80;;;6.27;;
17228;SDS011;8731;50.364;8.958;2022-11-15T09:40:22;7.00;;;6.13;;
17228;SDS011;8731;50.364;8.958;2022-11-15T09:45:09;7.87;;;5.83;;
17228;SDS011;8731;50.364;8.958;2022-11-15T09:50:00;8.20;;;4.00;;
17228;SDS011;8731;50.364;8.958;2022-11-15T09:54:31;5.03;;;4.03;;
17228;SDS011;8731;50.364;8.958;2022-11-15T09:58:59;8.37;;;4.33;;
17228;SDS011;8731;50.364;8.958;2022-11-15T10:03:40;5.57;;;4.13;;
17228;SDS011;8731;50.364;8.958;2022-11-15T10:08:03;4.87;;;3.27;;
17228;SDS011;8731;50.364;8.958;2022-11-15T10:12:47;7.93;;;4.07;;
17228;SDS011;8731;50.364;8.958;2022-11-15T10:22:24;6.50;;;4.83;;
17228;SDS011;8731;50.364;8.958;2022-11-15T10:26:49;5.57;;;4.80;;
17228;SDS011;8731;50.364;8.958;2022-11-15T10:31:21;3.53;;;3.10;;
17228;SDS011;8731;50.364;8.958;2022-11-15T10:35:46;4.53;;;3.23;;
17228;SDS011;8731;50.364;8.958;2022-11-15T10:40:14;4.30;;;3.30;;
17228;SDS011;8731;50.364;8.958;2022-11-15T10:44:41;4.93;;;3.70;;
17228;SDS011;8731;50.364;8.958;2022-11-15T10:49:13;4.20;;;3.30;;
17228;SDS011;8731;50.364;8.958;2022-11-15T10:53:38;4.07;;;3.67;;
17228;SDS011;8731;50.364;8.958;2022-11-15T10:58:21;3.77;;;3.30;;
17228;SDS011;8731;50.364;8.958;2022-11-15T11:02:56;3.80;;;3.40;;
17228;SDS011;8731;50.364;8.958;2022-11-15T11:07:23;6.53;;;4.00;;
17228;SDS011;8731;50.364;8.958;2022-11-15T11:11:48;5.03;;;3.17;;
17228;SDS011;8731;50.364;8.958;2022-11-15T11:21:12;5.23;;;3.50;;
17228;SDS011;8731;50.364;8.958;2022-11-15T11:25:45;5.17;;;3.23;;
17228;SDS011;8731;50.364;8.958;2022-11-15T11:30:17;5.07;;;3.50;;
17228;SDS011;8731;50.364;8.958;2022-11-15T11:34:49;3.83;;;3.07;;
17228;SDS011;8731;50.364;8.958;2022-11-15T11:39:26;8.33;;;3.50;;
17228;SDS011;8731;50.364;8.958;2022-11-15T11:44:03;5.63;;;3.60;;
17228;SDS011;8731;50.364;8.958;2022-11-15T11:48:46;6.57;;;3.63;;
17228;SDS011;8731;50.364;8.958;2022-11-15T11:53:17;5.13;;;3.23;;
17228;SDS011;8731;50.364;8.958;2022-11-15T11:57:51;5.43;;;4.03;;
17228;SDS011;8731;50.364;8.958;2022-11-15T12:02:27;4.67;;;3.43;;
17228;SDS011;8731;50.364;8.958;2022-11-15T12:06:56;7.50;;;2.90;;
17228;SDS011;8731;50.364;8.958;2022-11-15T12:11:26;7.73;;;3.57;;
17228;SDS011;8731;50.364;8.958;2022-11-15T12:15:58;3.80;;;3.10;;
17228;SDS011;8731;50.364;8.958;2022-11-15T12:20:33;5.17;;;3.40;;
17228;SDS011;8731;50.364;8.958;2022-11-15T12:25:01;6.47;;;2.93;;
17228;SDS011;8731;50.364;8.958;2022-11-15T12:29:33;5.33;;;3.13;;
17228;SDS011;8731;50.364;8.958;2022-11-15T12:34:01;4.47;;;3.10;;
17228;SDS011;8731;50.364;8.958;2022-11-15T13:03:12;6.00;;;3.07;;
17228;SDS011;8731;50.364;8.958;2022-11-15T13:07:57;4.93;;;2.67;;
17228;SDS011;8731;50.364;8.958;2022-11-15T13:17:22;5.43;;;3.10;;
17228;SDS011;8731;50.364;8.958;2022-11-15T13:21:53;4.53;;;2.70;;
17228;SDS011;8731;50.364;8.958;2022-11-15T13:26:33;4.33;;;2.70;;
17228;SDS011;8731;50.364;8.958;2022-11-15T13:30:58;2.87;;;2.37;;
17228;SDS011;8731;50.364;8.958;2022-11-15T13:35:24;3.60;;;2.60;;
17228;SDS011;8731;50.364;8.958;2022-11-15T13:39:49;6.43;;;3.23;;
17228;SDS011;8731;50.364;8.958;2022-11-15T13:44:18;4.53;;;2.70;;
17228;SDS011;8731;50.364;8.958;2022-11-15T13:48:45;4.43;;;3.00;;
17228;SDS011;8731;50.364;8.958;2022-11-15T13:53:12;4.53;;;2.53;;
17228;SDS011;8731;50.364;8.958;2022-11-15T13:57:36;2.83;;;2.27;;
17228;SDS011;8731;50.364;8.958;2022-11-15T14:02:11;3.40;;;2.73;;
17228;SDS011;8731;50.364;8.958;2022-11-15T14:06:42;5.17;;;3.60;;
17228;SDS011;8731;50.364;8.958;2022-11-15T14:11:09;7.87;;;5.60;;
17228;SDS011;8731;50.364;8.958;2022-11-15T14:15:38;6.60;;;4.93;;
17228;SDS011;8731;50.364;8.958;2022-11-15T14:20:00;10.37;;;7.27;;
17228;SDS011;8731;50.364;8.958;2022-11-15T14:24:42;13.53;;;6.90;;
17228;SDS011;8731;50.364;8.958;2022-11-15T14:29:22;12.33;;;6.57;;
17228;SDS011;8731;50.364;8.958;2022-11-15T14:33:46;7.90;;;6.13;;
17228;SDS011;8731;50.364;8.958;2022-11-15T14:38:08;8.87;;;6.50;;
17228;SDS011;8731;50.364;8.958;2022-11-15T14:42:32;10.63;;;7.63;;
17228;SDS011;8731;50.364;8.958;2022-11-15T14:46:54;7.97;;;5.17;;
17228;SDS011;8731;50.364;8.958;2022-11-15T14:51:17;7.37;;;4.63;;
17228;SDS011;8731;50.364;8.958;2022-11-15T14:55:40;5.90;;;4.97;;
17228;SDS011;8731;50.364;8.958;2022-11-15T15:00:05;4.27;;;3.37;;
17228;SDS011;8731;50.364;8.958;2022-11-15T15:04:33;5.57;;;3.30;;
17228;SDS011;8731;50.364;8.958;2022-11-15T15:08:55;4.30;;;3.83;;
17228;SDS011;8731;50.364;8.958;2022-11-15T15:13:19;3.53;;;2.73;;
17228;SDS011;8731;50.364;8.958;2022-11-15T15:17:44;6.00;;;4.77;;
17228;SDS011;8731;50.364;8.958;2022-11-15T15:22:09;8.17;;;5.27;;
17228;SDS011;8731;50.364;8.958;2022-11-15T15:26:36;4.30;;;3.00;;
17228;SDS011;8731;50.364;8.958;2022-11-15T15:30:59;5.53;;;2.73;;
17228;SDS011;8731;50.364;8.958;2022-11-15T15:35:22;4.87;;;3.53;;
17228;SDS011;8731;50.364;8.958;2022-11-15T15:39:51;5.20;;;2.97;;
17228;SDS011;8731;50.364;8.958;2022-11-15T15:44:15;5.30;;;2.97;;
17228;SDS011;8731;50.364;8.958;2022-11-15T15:48:38;5.57;;;3.70;;
17228;SDS011;8731;50.364;8.958;2022-11-15T15:53:02;5.27;;;4.17;;
17228;SDS011;8731;50.364;8.958;2022-11-15T15:57:28;8.47;;;6.10;;
17228;SDS011;8731;50.364;8.958;2022-11-15T16:01:50;3.73;;;2.63;;
17228;SDS011;8731;50.364;8.958;2022-11-15T16:10:59;9.10;;;4.73;;
17228;SDS011;8731;50.364;8.958;2022-11-15T16:15:24;5.20;;;3.77;;
17228;SDS011;8731;50.364;8.958;2022-11-15T16:19:50;9.37;;;5.50;;
17228;SDS011;8731;50.364;8.958;2022-11-15T16:24:12;5.87;;;5.10;;
17228;SDS011;8731;50.364;8.958;2022-11-15T16:28:36;5.57;;;5.00;;
17228;SDS011;8731;50.364;8.958;2022-11-15T16:32:58;9.23;;;7.43;;
17228;SDS011;8731;50.364;8.958;2022-11-15T16:37:21;8.07;;;4.80;;
17228;SDS011;8731;50.364;8.958;2022-11-15T16:41:44;8.63;;;4.53;;
17228;SDS011;8731;50.364;8.958;2022-11-15T16:46:12;7.33;;;3.67;;
17228;SDS011;8731;50.364;8.958;2022-11-15T16:50:37;7.03;;;4.27;;
17228;SDS011;8731;50.364;8.958;2022-11-15T16:55:00;7.23;;;4.50;;
17228;SDS011;8731;50.364;8.958;2022-11-15T16:59:22;7.17;;;4.20;;
17228;SDS011;8731;50.364;8.958;2022-11-15T17:03:46;5.57;;;2.77;;
17228;SDS011;8731;50.364;8.958;2022-11-15T17:08:08;4.43;;;2.80;;
17228;SDS011;8731;50.364;8.958;2022-11-15T17:12:30;4.03;;;2.70;;
17228;SDS011;8731;50.364;8.958;2022-11-15T17:16:53;6.83;;;3.90;;
17228;SDS011;8731;50.364;8.958;2022-11-15T17:21:18;8.10;;;3.97;;
17228;SDS011;8731;50.364;8.958;2022-11-15T17:25:42;7.27;;;3.87;;
17228;SDS011;8731;50.364;8.958;2022-11-15T17:30:05;4.10;;;2.63;;
17228;SDS011;8731;50.364;8.958;2022-11-15T17:34:30;3.63;;;2.97;;
17228;SDS011;8731;50.364;8.958;2022-11-15T17:38:54;6.20;;;3.63;;
17228;SDS011;8731;50.364;8.958;2022-11-15T17:43:16;6.73;;;3.83;;
17228;SDS011;8731;50.364;8.958;2022-11-15T17:47:38;8.83;;;6.37;;
17228;SDS011;8731;50.364;8.958;2022-11-15T17:52:01;13.10;;;10.10;;
17228;SDS011;8731;50.364;8.958;2022-11-15T17:56:25;10.73;;;7.30;;
17228;SDS011;8731;50.364;8.958;2022-11-15T18:00:49;7.77;;;5.23;;
17228;SDS011;8731;50.364;8.958;2022-11-15T18:05:12;6.30;;;3.97;;
17228;SDS011;8731;50.364;8.958;2022-11-15T18:09:34;6.80;;;3.33;;
17228;SDS011;8731;50.364;8.958;2022-11-15T18:13:59;8.40;;;3.57;;
17228;SDS011;8731;50.364;8.958;2022-11-15T18:18:24;6.63;;;3.30;;
17228;SDS011;8731;50.364;8.958;2022-11-15T18:22:47;5.10;;;4.17;;
17228;SDS011;8731;50.364;8.958;2022-11-15T18:27:12;8.37;;;5.60;;
17228;SDS011;8731;50.364;8.958;2022-11-15T18:31:35;6.17;;;4.23;;
17228;SDS011;8731;50.364;8.958;2022-11-15T18:35:59;6.37;;;4.53;;
17228;SDS011;8731;50.364;8.958;2022-11-15T18:40:23;8.70;;;5.70;;
17228;SDS011;8731;50.364;8.958;2022-11-15T18:44:45;6.43;;;4.30;;
17228;SDS011;8731;50.364;8.958;2022-11-15T18:49:10;8.57;;;4.43;;
17228;SDS011;8731;50.364;8.958;2022-11-15T18:53:34;4.10;;;3.33;;
17228;SDS011;8731;50.364;8.958;2022-11-15T18:57:58;6.90;;;4.00;;
17228;SDS011;8731;50.364;8.958;2022-11-15T19:02:21;5.63;;;3.77;;
17228;SDS011;8731;50.364;8.958;2022-11-15T19:06:45;6.07;;;4.77;;
17228;SDS011;8731;50.364;8.958;2022-11-15T19:11:10;4.80;;;3.83;;
17228;SDS011;8731;50.364;8.958;2022-11-15T19:15:35;11.90;;;8.13;;
17228;SDS011;8731;50.364;8.958;2022-11-15T19:19:57;12.93;;;7.20;;
17228;SDS011;8731;50.364;8.958;2022-11-15T19:24:21;7.47;;;5.60;;
17228;SDS011;8731;50.364;8.958;2022-11-15T19:28:43;8.63;;;4.90;;
17228;SDS011;8731;50.364;8.958;2022-11-15T19:33:10;5.70;;;4.47;;
17228;SDS011;8731;50.364;8.958;2022-11-15T19:37:33;7.17;;;3.80;;
17228;SDS011;8731;50.364;8.958;2022-11-15T19:41:57;6.37;;;4.30;;
17228;SDS011;8731;50.364;8.958;2022-11-15T19:46:20;8.73;;;4.53;;
17228;SDS011;8731;50.364;8.958;2022-11-15T19:50:43;4.97;;;3.50;;
17228;SDS011;8731;50.364;8.958;2022-11-15T19:55:06;7.40;;;3.87;;
17228;SDS011;8731;50.364;8.958;2022-11-15T19:59:31;6.20;;;4.03;;
17228;SDS011;8731;50.364;8.958;2022-11-15T20:03:54;5.77;;;4.57;;
17228;SDS011;8731;50.364;8.958;2022-11-15T20:08:18;6.13;;;3.97;;
17228;SDS011;8731;50.364;8.958;2022-11-15T20:12:41;4.83;;;3.73;;
17228;SDS011;8731;50.364;8.958;2022-11-15T20:17:05;5.93;;;5.33;;
17228;SDS011;8731;50.364;8.958;2022-11-15T20:21:27;5.73;;;5.03;;
17228;SDS011;8731;50.364;8.958;2022-11-15T20:25:49;22.80;;;19.83;;
17228;SDS011;8731;50.364;8.958;2022-11-15T20:30:13;6.57;;;3.90;;
17228;SDS011;8731;50.364;8.958;2022-11-15T20:34:36;11.67;;;9.87;;
17228;SDS011;8731;50.364;8.958;2022-11-15T20:38:59;6.43;;;4.23;;
17228;SDS011;8731;50.364;8.958;2022-11-15T20:43:21;7.37;;;5.97;;
17228;SDS011;8731;50.364;8.958;2022-11-15T20:47:43;6.03;;;4.73;;
17228;SDS011;8731;50.364;8.958;2022-11-15T20:52:07;19.43;;;9.63;;
17228;SDS011;8731;50.364;8.958;2022-11-15T20:56:29;35.20;;;16.63;;
17228;SDS011;8731;50.364;8.958;2022-11-15T21:00:53;31.07;;;16.07;;
17228;SDS011;8731;50.364;8.958;2022-11-15T21:05:16;37.73;;;19.60;;
17228;SDS011;8731;50.364;8.958;2022-11-15T21:09:41;10.60;;;6.53;;
17228;SDS011;8731;50.364;8.958;2022-11-15T21:14:20;5.97;;;4.27;;
17228;SDS011;8731;50.364;8.958;2022-11-15T21:18:43;5.40;;;4.07;;
17228;SDS011;8731;50.364;8.958;2022-11-15T21:23:07;5.07;;;3.63;;
17228;SDS011;8731;50.364;8.958;2022-11-15T21:27:31;5.83;;;3.17;;
17228;SDS011;8731;50.364;8.958;2022-11-15T21:31:53;6.10;;;4.60;;
17228;SDS011;8731;50.364;8.958;2022-11-15T21:36:16;8.17;;;7.33;;
17228;SDS011;8731;50.364;8.958;2022-11-15T21:40:38;6.13;;;4.40;;
17228;SDS011;8731;50.364;8.958;2022-11-15T21:45:02;4.57;;;3.33;;
17228;SDS011;8731;50.364;8.958;2022-11-15T21:49:25;5.50;;;3.80;;
17228;SDS011;8731;50.364;8.958;2022-11-15T21:53:48;6.43;;;3.50;;
17228;SDS011;8731;50.364;8.958;2022-11-15T21:58:13;7.37;;;5.93;;
17228;SDS011;8731;50.364;8.958;2022-11-15T22:02:37;4.40;;;3.30;;
17228;SDS011;8731;50.364;8.958;2022-11-15T22:07:00;4.70;;;3.30;;
17228;SDS011;8731;50.364;8.958;2022-11-15T22:11:23;4.83;;;3.47;;
17228;SDS011;8731;50.364;8.958;2022-11-15T22:15:45;5.73;;;3.87;;
17228;SDS011;8731;50.364;8.958;2022-11-15T22:20:12;4.90;;;3.47;;
17228;SDS011;8731;50.364;8.958;2022-11-15T22:24:34;4.23;;;3.40;;
17228;SDS011;8731;50.364;8.958;2022-11-15T22:28:57;5.70;;;3.20;;
17228;SDS011;8731;50.364;8.958;2022-11-15T22:33:20;3.87;;;3.47;;
17228;SDS011;8731;50.364;8.958;2022-11-15T22:37:46;4.10;;;3.37;;
17228;SDS011;8731;50.364;8.958;2022-11-15T22:42:08;4.33;;;2.80;;
17228;SDS011;8731;50.364;8.958;2022-11-15T22:46:31;5.83;;;3.73;;
17228;SDS011;8731;50.364;8.958;2022-11-15T22:50:53;6.07;;;3.60;;
17228;SDS011;8731;50.364;8.958;2022-11-15T22:55:17;4.60;;;3.13;;
17228;SDS011;8731;50.364;8.958;2022-11-15T22:59:40;5.33;;;3.73;;
17228;SDS011;8731;50.364;8.958;2022-11-15T23:04:02;5.13;;;3.77;;
17228;SDS011;8731;50.364;8.958;2022-11-15T23:08:25;7.27;;;3.67;;
17228;SDS011;8731;50.364;8.958;2022-11-15T23:12:48;4.50;;;3.80;;
17228;SDS011;8731;50.364;8.958;2022-11-15T23:17:29;4.27;;;3.80;;
17228;SDS011;8731;50.364;8.958;2022-11-15T23:21:52;5.27;;;3.47;;
17228;SDS011;8731;50.364;8.958;2022-11-15T23:26:31;5.43;;;3.90;;
17228;SDS011;8731;50.364;8.958;2022-11-15T23:30:55;4.90;;;3.80;;
17228;SDS011;8731;50.364;8.958;2022-11-15T23:35:41;4.60;;;3.43;;
17228;SDS011;8731;50.364;8.958;2022-11-15T23:40:13;5.00;;;3.80;;
17228;SDS011;8731;50.364;8.958;2022-11-15T23:44:37;5.10;;;3.70;;
17228;SDS011;8731;50.364;8.958;2022-11-15T23:49:01;4.80;;;3.00;;
17228;SDS011;8731;50.364;8.958;2022-11-15T23:53:24;5.73;;;3.50;;
17228;SDS011;8731;50.364;8.958;2022-11-15T23:57:46;6.47;;;3.63;;
